createdAt,value
2023-04-12T00:01:10.437Z,3.00
2023-04-12T00:03:39.669Z,2.70
2023-04-12T00:06:07.480Z,2.77
2023-04-12T00:08:35.262Z,2.77
2023-04-12T00:11:03.676Z,3.33
2023-04-12T00:13:30.802Z,2.60
2023-04-12T00:15:57.579Z,2.57
2023-04-12T00:18:26.087Z,2.67
2023-04-12T00:20:53.329Z,2.63
2023-04-12T00:23:20.684Z,2.60
2023-04-12T00:25:48.427Z,2.77
2023-04-12T00:28:18.424Z,2.60
2023-04-12T00:30:46.008Z,3.00
2023-04-12T00:33:12.848Z,3.07
2023-04-12T00:35:39.682Z,2.63
2023-04-12T00:38:10.583Z,3.17
2023-04-12T00:40:41.605Z,2.93
2023-04-12T00:43:10.235Z,3.03
2023-04-12T00:45:40.028Z,3.00
2023-04-12T00:48:07.333Z,2.97
2023-04-12T00:50:35.571Z,2.93
2023-04-12T00:53:04.057Z,3.20
2023-04-12T00:55:33.589Z,2.87
2023-04-12T00:58:00.971Z,3.17
2023-04-12T01:00:27.893Z,3.63
2023-04-12T01:02:55.264Z,3.23
2023-04-12T01:05:24.099Z,3.10
2023-04-12T01:08:16.959Z,3.20
2023-04-12T01:10:56.278Z,3.63
2023-04-12T01:13:40.232Z,3.17
2023-04-12T01:16:32.192Z,2.90
2023-04-12T01:19:06.361Z,3.03
2023-04-12T01:22:17.025Z,3.00
2023-04-12T01:25:06.103Z,2.43
2023-04-12T01:27:56.424Z,2.70
2023-04-12T01:30:28.128Z,2.97
2023-04-12T01:32:58.626Z,3.07
2023-04-12T01:35:30.995Z,3.00
2023-04-12T01:37:59.152Z,2.33
2023-04-12T01:40:29.672Z,3.20
2023-04-12T01:43:07.150Z,2.80
2023-04-12T01:45:34.009Z,2.90
2023-04-12T01:48:01.971Z,3.13
2023-04-12T01:50:40.617Z,2.50
2023-04-12T01:53:28.297Z,2.23
2023-04-12T01:55:59.576Z,3.30
2023-04-12T01:58:27.921Z,2.60
2023-04-12T02:00:57.752Z,2.40
2023-04-12T02:03:25.043Z,2.80
2023-04-12T02:05:52.794Z,3.40
2023-04-12T02:08:19.624Z,2.97
2023-04-12T02:10:46.364Z,3.00
2023-04-12T02:13:14.421Z,3.50
2023-04-12T02:15:41.095Z,3.40
2023-04-12T02:18:07.909Z,3.80
2023-04-12T02:20:35.892Z,4.43
2023-04-12T02:23:02.650Z,3.50
2023-04-12T02:25:29.580Z,3.47
2023-04-12T02:27:56.383Z,4.10
2023-04-12T02:30:23.208Z,3.80
2023-04-12T02:32:51.458Z,4.03
2023-04-12T02:35:18.348Z,3.57
2023-04-12T02:37:46.886Z,3.43
2023-04-12T02:40:15.578Z,3.63
2023-04-12T02:42:43.308Z,3.77
2023-04-12T02:45:11.484Z,3.47
2023-04-12T02:47:38.319Z,3.33
2023-04-12T02:50:06.870Z,2.90
2023-04-12T02:52:33.739Z,3.03
2023-04-12T02:55:00.986Z,3.33
2023-04-12T02:57:27.963Z,2.43
2023-04-12T02:59:55.017Z,2.77
2023-04-12T03:02:23.050Z,2.67
2023-04-12T03:04:51.182Z,3.00
2023-04-12T03:07:19.661Z,2.53
2023-04-12T03:09:47.788Z,2.70
2023-04-12T03:12:16.426Z,3.23
2023-04-12T03:14:43.602Z,2.90
2023-04-12T03:17:10.995Z,3.57
2023-04-12T03:19:37.873Z,2.87
2023-04-12T03:22:05.156Z,3.07
2023-04-12T03:24:35.106Z,2.70
2023-04-12T03:27:06.932Z,2.53
2023-04-12T03:29:33.728Z,3.53
2023-04-12T03:32:00.855Z,2.90
2023-04-12T03:34:32.022Z,2.77
2023-04-12T03:37:01.130Z,2.93
2023-04-12T03:39:31.053Z,2.87
2023-04-12T03:41:58.801Z,3.43
2023-04-12T03:44:26.373Z,3.40
2023-04-12T03:46:53.983Z,3.40
2023-04-12T03:49:24.257Z,3.10
2023-04-12T03:51:59.570Z,3.53
2023-04-12T03:54:30.550Z,3.10
2023-04-12T03:57:06.038Z,3.63
2023-04-12T04:00:14.493Z,3.37
2023-04-12T04:02:51.737Z,3.10
2023-04-12T04:05:37.664Z,3.00
2023-04-12T04:08:08.342Z,3.07
2023-04-12T04:10:37.599Z,3.00
2023-04-12T04:13:10.761Z,3.00
2023-04-12T04:15:37.527Z,4.03
2023-04-12T04:18:20.784Z,3.77
2023-04-12T04:20:55.123Z,3.73
2023-04-12T04:23:25.276Z,3.87
2023-04-12T04:25:59.538Z,3.90
2023-04-12T04:28:29.425Z,3.73
2023-04-12T04:30:57.839Z,3.50
2023-04-12T04:33:56.600Z,3.87
2023-04-12T04:36:48.418Z,3.50
2023-04-12T04:39:24.259Z,4.07
2023-04-12T04:42:15.914Z,4.13
2023-04-12T04:44:45.777Z,3.90
2023-04-12T04:47:17.230Z,3.87
2023-04-12T04:49:54.931Z,4.00
2023-04-12T04:52:40.964Z,3.93
2023-04-12T04:55:16.380Z,4.20
2023-04-12T04:57:48.512Z,4.47
2023-04-12T05:00:16.514Z,4.00
2023-04-12T05:02:45.900Z,4.53
2023-04-12T05:05:13.936Z,4.10
2023-04-12T05:07:40.856Z,3.97
2023-04-12T05:10:08.356Z,4.67
2023-04-12T05:12:35.973Z,4.37
2023-04-12T05:17:34.323Z,4.73
2023-04-12T05:20:06.524Z,4.90
2023-04-12T05:22:37.009Z,4.77
2023-04-12T05:25:06.534Z,4.80
2023-04-12T05:27:33.331Z,5.03
2023-04-12T05:30:00.414Z,5.00
2023-04-12T05:32:27.345Z,5.53
2023-04-12T05:34:54.449Z,5.37
2023-04-12T05:37:21.177Z,5.17
2023-04-12T05:39:47.985Z,5.23
2023-04-12T05:42:14.895Z,5.70
2023-04-12T05:44:48.044Z,6.00
2023-04-12T05:47:16.156Z,5.90
2023-04-12T05:49:47.279Z,6.27
2023-04-12T05:52:14.310Z,5.80
2023-04-12T05:54:41.923Z,6.67
2023-04-12T05:57:08.739Z,5.87
2023-04-12T05:59:35.506Z,6.17
2023-04-12T06:02:02.576Z,5.87
2023-04-12T06:04:38.401Z,6.73
2023-04-12T06:07:13.895Z,6.27
2023-04-12T06:09:42.803Z,6.70
2023-04-12T06:12:09.492Z,6.87
2023-04-12T06:14:36.340Z,6.80
2023-04-12T06:17:03.120Z,6.23
2023-04-12T06:19:29.870Z,6.17
2023-04-12T06:21:56.904Z,6.57
2023-04-12T06:24:23.727Z,6.47
2023-04-12T06:26:50.744Z,6.63
2023-04-12T06:29:17.635Z,7.03
2023-04-12T06:31:44.537Z,6.40
2023-04-12T06:34:11.332Z,7.00
2023-04-12T06:36:40.195Z,6.70
2023-04-12T06:39:08.347Z,6.20
2023-04-12T06:41:35.084Z,7.20
2023-04-12T06:44:01.757Z,6.40
2023-04-12T06:46:29.679Z,6.90
2023-04-12T06:48:56.606Z,6.37
2023-04-12T06:51:23.548Z,6.73
2023-04-12T06:53:50.660Z,6.73
2023-04-12T06:56:18.659Z,7.03
2023-04-12T06:58:46.066Z,7.60
2023-04-12T07:01:14.618Z,6.97
2023-04-12T07:03:41.611Z,6.80
2023-04-12T07:06:21.891Z,6.47
2023-04-12T07:08:52.755Z,7.37
2023-04-12T07:11:22.429Z,7.27
2023-04-12T07:13:51.154Z,7.83
2023-04-12T07:16:18.483Z,7.03
2023-04-12T07:18:47.283Z,7.17
2023-04-12T07:21:14.574Z,8.17
2023-04-12T07:23:44.025Z,7.70
2023-04-12T07:26:10.950Z,8.00
2023-04-12T07:28:39.174Z,7.90
2023-04-12T07:31:09.570Z,6.77
2023-04-12T07:33:39.395Z,7.00
2023-04-12T07:36:08.059Z,7.07
2023-04-12T07:38:35.063Z,7.13
2023-04-12T07:41:02.665Z,7.80
2023-04-12T07:43:32.578Z,7.00
2023-04-12T07:45:59.614Z,6.23
2023-04-12T07:48:26.736Z,6.97
2023-04-12T07:50:53.597Z,5.83
2023-04-12T07:53:24.837Z,5.57
2023-04-12T07:55:53.379Z,5.40
2023-04-12T07:58:22.944Z,5.37
2023-04-12T08:00:50.168Z,5.97
2023-04-12T08:03:18.538Z,5.23
2023-04-12T08:05:49.089Z,5.60
2023-04-12T08:08:16.239Z,5.60
2023-04-12T08:10:45.548Z,5.37
2023-04-12T08:13:12.452Z,5.37
2023-04-12T08:15:41.774Z,5.33
2023-04-12T08:18:08.595Z,5.67
2023-04-12T08:20:35.757Z,5.20
2023-04-12T08:23:04.334Z,6.27
2023-04-12T08:25:31.488Z,5.13
2023-04-12T08:27:59.418Z,6.00
2023-04-12T08:30:27.178Z,6.00
2023-04-12T08:32:54.382Z,6.00
2023-04-12T08:35:22.660Z,5.67
2023-04-12T08:37:49.852Z,6.50
2023-04-12T08:40:17.036Z,5.57
2023-04-12T08:42:46.296Z,5.23
2023-04-12T08:45:14.376Z,6.70
2023-04-12T08:47:45.107Z,5.67
2023-04-12T08:50:17.307Z,5.10
2023-04-12T08:52:44.273Z,5.60
2023-04-12T08:55:13.034Z,5.40
2023-04-12T08:57:41.720Z,5.47
2023-04-12T09:00:10.262Z,5.20
2023-04-12T09:02:38.437Z,5.40
2023-04-12T09:05:06.870Z,5.67
2023-04-12T09:07:34.691Z,6.57
2023-04-12T09:10:01.749Z,6.30
2023-04-12T09:12:28.631Z,6.10
2023-04-12T09:15:12.853Z,7.27
2023-04-12T09:17:41.400Z,7.47
2023-04-12T09:20:21.714Z,7.27
2023-04-12T09:22:48.889Z,6.67
2023-04-12T09:25:16.112Z,8.40
2023-04-12T09:27:50.884Z,7.90
2023-04-12T09:30:19.376Z,6.40
2023-04-12T09:32:49.287Z,7.33
2023-04-12T09:35:16.488Z,6.47
2023-04-12T09:37:43.330Z,6.53
2023-04-12T09:40:11.162Z,5.80
2023-04-12T09:42:55.442Z,5.63
2023-04-12T09:45:28.049Z,6.23
2023-04-12T09:47:55.521Z,7.00
2023-04-12T09:50:30.284Z,6.33
2023-04-12T09:52:58.102Z,6.10
2023-04-12T09:55:26.895Z,7.00
2023-04-12T09:57:55.312Z,5.67
2023-04-12T10:00:27.431Z,5.57
2023-04-12T10:02:55.881Z,5.33
2023-04-12T10:05:26.271Z,5.50
2023-04-12T10:07:53.630Z,5.87
2023-04-12T10:10:21.199Z,4.80
2023-04-12T10:12:49.181Z,5.20
2023-04-12T10:15:21.898Z,4.13
2023-04-12T10:17:55.910Z,4.70
2023-04-12T10:20:25.531Z,4.67
2023-04-12T10:22:54.238Z,4.30
2023-04-12T10:25:23.884Z,4.50
2023-04-12T10:27:50.763Z,3.83
2023-04-12T10:30:29.411Z,4.57
2023-04-12T10:33:05.701Z,4.30
2023-04-12T10:36:03.845Z,4.47
2023-04-12T10:38:37.443Z,4.27
2023-04-12T10:41:13.543Z,3.67
2023-04-12T10:43:45.880Z,3.90
2023-04-12T10:46:45.593Z,4.17
2023-04-12T10:49:16.499Z,4.50
2023-04-12T10:52:16.134Z,4.33
2023-04-12T10:54:43.176Z,4.00
2023-04-12T10:57:47.146Z,3.90
2023-04-12T11:00:16.987Z,3.97
2023-04-12T11:03:12.763Z,4.07
2023-04-12T11:06:20.228Z,3.60
2023-04-12T11:08:54.726Z,3.40
2023-04-12T11:11:22.775Z,3.37
2023-04-12T11:13:56.186Z,3.43
2023-04-12T11:16:23.097Z,3.50
2023-04-12T11:18:50.556Z,4.67
2023-04-12T11:21:18.618Z,3.47
2023-04-12T11:23:46.755Z,2.60
2023-04-12T11:26:20.376Z,3.97
2023-04-12T11:28:48.249Z,2.73
2023-04-12T11:31:15.660Z,2.83
2023-04-12T11:33:42.584Z,4.60
2023-04-12T11:36:16.481Z,2.70
2023-04-12T11:38:48.187Z,2.67
2023-04-12T11:41:15.563Z,3.40
2023-04-12T11:43:46.086Z,3.33
2023-04-12T11:46:13.289Z,2.87
2023-04-12T11:48:45.239Z,3.70
2023-04-12T11:51:25.465Z,3.33
2023-04-12T11:53:57.210Z,4.00
2023-04-12T11:56:27.709Z,3.53
2023-04-12T11:58:54.695Z,3.93
2023-04-12T12:01:24.065Z,4.33
2023-04-12T12:03:51.380Z,3.43
2023-04-12T12:06:19.873Z,3.40
2023-04-12T12:08:48.498Z,3.87
2023-04-12T12:11:15.726Z,3.67
2023-04-12T12:13:50.595Z,2.90
2023-04-12T12:16:40.220Z,3.00
2023-04-12T12:19:07.193Z,2.60
2023-04-12T12:21:34.140Z,2.60
2023-04-12T12:24:01.380Z,2.10
2023-04-12T12:26:28.712Z,2.53
2023-04-12T12:28:57.417Z,2.93
2023-04-12T12:31:26.585Z,2.53
2023-04-12T12:33:58.910Z,2.17
2023-04-12T12:36:39.609Z,2.40
2023-04-12T12:39:11.834Z,2.60
2023-04-12T12:41:39.979Z,1.80
2023-04-12T12:44:08.052Z,1.80
2023-04-12T12:46:54.169Z,1.70
2023-04-12T12:49:24.104Z,2.93
2023-04-12T12:51:54.864Z,1.93
2023-04-12T12:54:39.425Z,2.00
2023-04-12T12:57:07.923Z,2.30
2023-04-12T12:59:34.983Z,2.40
2023-04-12T13:02:02.035Z,2.70
2023-04-12T13:04:29.250Z,3.07
2023-04-12T13:06:56.156Z,2.90
2023-04-12T13:09:23.243Z,3.23
2023-04-12T13:11:50.137Z,3.97
2023-04-12T13:14:18.128Z,2.60
2023-04-12T13:16:48.522Z,2.70
2023-04-12T13:19:16.754Z,2.40
2023-04-12T13:21:43.730Z,2.30
2023-04-12T13:24:10.566Z,2.30
2023-04-12T13:26:37.341Z,1.75
2023-04-12T13:29:04.325Z,1.77
2023-04-12T13:31:32.702Z,1.63
2023-04-12T13:33:59.880Z,1.77
2023-04-12T13:36:34.859Z,1.83
2023-04-12T13:39:03.060Z,1.70
2023-04-12T13:41:32.945Z,2.00
2023-04-12T13:44:00.954Z,1.70
2023-04-12T13:46:28.026Z,1.55
2023-04-12T13:48:55.030Z,1.35
2023-04-12T13:51:22.985Z,0.83
2023-04-12T13:53:49.824Z,1.30
2023-04-12T13:56:18.946Z,1.10
2023-04-12T13:58:45.915Z,1.43
2023-04-12T14:01:13.889Z,1.83
2023-04-12T14:03:40.819Z,1.80
2023-04-12T14:06:09.750Z,1.33
2023-04-12T14:08:36.693Z,1.70
2023-04-12T14:11:06.941Z,1.60
2023-04-12T14:13:33.828Z,1.57
2023-04-12T14:16:00.717Z,2.30
2023-04-12T14:18:30.465Z,2.00
2023-04-12T14:20:59.332Z,1.33
2023-04-12T14:23:27.743Z,1.43
2023-04-12T14:25:54.858Z,1.60
2023-04-12T14:28:30.653Z,1.33
2023-04-12T14:30:58.136Z,1.90
2023-04-12T14:33:25.323Z,2.03
2023-04-12T14:35:55.513Z,1.60
2023-04-12T14:38:22.959Z,1.63
2023-04-12T14:40:58.810Z,1.50
2023-04-12T14:43:26.310Z,1.53
2023-04-12T14:45:55.932Z,1.70
2023-04-12T14:48:24.956Z,2.40
2023-04-12T14:50:52.002Z,1.73
2023-04-12T14:53:23.171Z,1.77
2023-04-12T14:55:52.240Z,1.90
2023-04-12T14:58:19.575Z,1.50
2023-04-12T15:00:47.570Z,1.93
2023-04-12T15:03:15.785Z,1.37
2023-04-12T15:05:42.955Z,1.40
2023-04-12T15:08:09.955Z,1.40
2023-04-12T15:10:38.064Z,1.73
2023-04-12T15:13:06.040Z,1.20
2023-04-12T15:15:32.982Z,1.37
2023-04-12T15:18:06.058Z,1.90
2023-04-12T15:20:33.348Z,2.00
2023-04-12T15:23:02.920Z,1.50
2023-04-12T15:25:33.535Z,1.40
2023-04-12T15:28:02.625Z,1.50
2023-04-12T15:30:30.621Z,1.47
2023-04-12T15:32:58.630Z,1.70
2023-04-12T15:35:27.177Z,1.50
2023-04-12T15:37:55.168Z,1.30
2023-04-12T15:40:23.063Z,1.57
2023-04-12T15:42:56.311Z,1.20
2023-04-12T15:45:23.464Z,1.20
2023-04-12T15:47:51.009Z,1.77
2023-04-12T15:50:23.351Z,1.30
2023-04-12T15:52:50.851Z,1.50
2023-04-12T15:55:20.281Z,1.47
2023-04-12T15:57:51.500Z,1.30
2023-04-12T16:00:24.357Z,1.50
2023-04-12T16:02:54.959Z,1.40
2023-04-12T16:05:22.288Z,1.47
2023-04-12T16:07:51.257Z,1.53
2023-04-12T16:10:22.870Z,1.60
2023-04-12T16:12:51.327Z,1.20
2023-04-12T16:15:21.121Z,1.27
2023-04-12T16:17:48.927Z,1.20
2023-04-12T16:20:23.058Z,1.10
2023-04-12T16:22:55.720Z,1.77
2023-04-12T16:25:24.485Z,1.10
2023-04-12T16:27:57.858Z,1.20
2023-04-12T16:30:25.647Z,1.20
2023-04-12T16:32:53.149Z,1.33
2023-04-12T16:35:20.036Z,1.03
2023-04-12T16:37:53.860Z,1.10
2023-04-12T16:40:26.038Z,1.10
2023-04-12T16:42:56.134Z,1.40
2023-04-12T16:45:23.348Z,1.27
2023-04-12T16:47:50.768Z,1.30
2023-04-12T16:50:17.991Z,1.30
2023-04-12T16:52:47.701Z,1.00
2023-04-12T16:55:14.677Z,1.30
2023-04-12T16:57:43.056Z,1.10
2023-04-12T17:00:27.512Z,1.30
2023-04-12T17:02:55.574Z,1.13
2023-04-12T17:05:23.124Z,1.40
2023-04-12T17:07:54.125Z,1.40
2023-04-12T17:10:22.920Z,1.17
2023-04-12T17:12:52.675Z,1.20
2023-04-12T17:15:21.035Z,1.30
2023-04-12T17:17:52.513Z,1.20
2023-04-12T17:20:22.186Z,1.10
2023-04-12T17:22:50.187Z,1.20
2023-04-12T17:25:18.892Z,1.23
2023-04-12T17:27:47.760Z,1.00
2023-04-12T17:30:17.656Z,1.30
2023-04-12T17:32:50.081Z,1.47
2023-04-12T17:35:23.452Z,1.10
2023-04-12T17:37:50.921Z,0.90
2023-04-12T17:40:17.784Z,1.47
2023-04-12T17:42:45.136Z,1.10
2023-04-12T17:45:14.448Z,1.10
2023-04-12T17:47:42.492Z,1.50
2023-04-12T17:50:18.525Z,1.50
2023-04-12T17:52:47.772Z,1.70
2023-04-12T17:55:14.905Z,1.47
2023-04-12T17:57:44.291Z,1.10
2023-04-12T18:00:12.025Z,1.50
2023-04-12T18:02:42.470Z,1.70
2023-04-12T18:05:12.982Z,2.20
2023-04-12T18:07:41.228Z,1.80
2023-04-12T18:10:15.953Z,1.50
2023-04-12T18:12:46.518Z,1.60
2023-04-12T18:15:19.580Z,1.57
2023-04-12T18:17:47.652Z,1.23
2023-04-12T18:20:15.989Z,1.37
2023-04-12T18:22:44.111Z,1.43
2023-04-12T18:25:12.406Z,1.40
2023-04-12T18:27:39.100Z,1.40
2023-04-12T18:30:07.317Z,1.50
2023-04-12T18:32:34.054Z,1.50
2023-04-12T18:35:01.457Z,1.40
2023-04-12T18:37:28.212Z,1.67
2023-04-12T18:39:55.599Z,1.70
2023-04-12T18:42:23.337Z,2.10
2023-04-12T18:44:51.020Z,2.00
2023-04-12T18:47:18.303Z,1.70
2023-04-12T18:49:45.813Z,2.00
2023-04-12T18:52:12.597Z,1.80
2023-04-12T18:54:39.279Z,2.10
2023-04-12T18:57:06.949Z,1.90
2023-04-12T18:59:33.753Z,2.00
2023-04-12T19:02:00.596Z,2.10
2023-04-12T19:04:27.925Z,2.30
2023-04-12T19:06:56.214Z,2.13
2023-04-12T19:09:23.151Z,2.60
2023-04-12T19:11:49.835Z,3.10
2023-04-12T19:14:16.645Z,2.80
2023-04-12T19:16:43.355Z,2.37
2023-04-12T19:19:10.135Z,2.73
2023-04-12T19:21:37.726Z,2.60
2023-04-12T19:24:06.763Z,2.87
2023-04-12T19:26:36.607Z,3.17
2023-04-12T19:29:03.540Z,3.60
2023-04-12T19:31:30.550Z,3.47
2023-04-12T19:33:57.699Z,4.30
2023-04-12T19:36:24.941Z,4.30
2023-04-12T19:38:52.173Z,3.70
2023-04-12T19:41:20.465Z,3.60
2023-04-12T19:43:47.752Z,4.10
2023-04-12T19:46:16.433Z,3.50
2023-04-12T19:48:45.397Z,3.83
2023-04-12T19:51:12.160Z,3.73
2023-04-12T19:53:39.808Z,3.93
2023-04-12T19:56:06.933Z,3.57
2023-04-12T19:58:34.720Z,3.10
2023-04-12T20:01:03.066Z,3.87
2023-04-12T20:03:31.239Z,3.50
2023-04-12T20:06:04.551Z,3.40
2023-04-12T20:08:35.601Z,2.97
2023-04-12T20:11:03.427Z,3.00
2023-04-12T20:13:31.466Z,3.63
2023-04-12T20:16:02.962Z,3.70
2023-04-12T20:18:29.744Z,3.40
2023-04-12T20:20:57.787Z,3.30
2023-04-12T20:23:26.088Z,3.57
2023-04-12T20:25:54.185Z,4.63
2023-04-12T20:28:21.221Z,3.93
2023-04-12T20:30:51.211Z,4.53
2023-04-12T20:33:20.065Z,4.07
2023-04-12T20:35:49.234Z,3.70
2023-04-12T20:38:18.458Z,4.40
2023-04-12T20:40:45.198Z,3.53
2023-04-12T20:43:11.922Z,4.17
2023-04-12T20:45:39.751Z,3.20
2023-04-12T20:48:07.577Z,4.00
2023-04-12T20:50:34.413Z,4.33
2023-04-12T20:53:01.328Z,4.23
2023-04-12T20:55:34.928Z,4.40
2023-04-12T20:58:03.109Z,6.13
2023-04-12T21:00:31.244Z,4.97
2023-04-12T21:02:58.570Z,3.80
2023-04-12T21:05:27.317Z,4.30
2023-04-12T21:07:54.745Z,4.30
2023-04-12T21:10:22.298Z,4.40
2023-04-12T21:12:50.087Z,4.20
2023-04-12T21:15:22.168Z,4.40
2023-04-12T21:17:51.593Z,6.63
2023-04-12T21:20:18.909Z,5.37
2023-04-12T21:22:47.975Z,4.50
2023-04-12T21:25:18.927Z,4.47
2023-04-12T21:27:47.748Z,4.07
2023-04-12T21:30:14.735Z,4.23
2023-04-12T21:32:43.408Z,4.03
2023-04-12T21:35:16.340Z,4.30
2023-04-12T21:37:43.074Z,4.00
2023-04-12T21:40:10.143Z,3.77
2023-04-12T21:42:37.878Z,4.17
2023-04-12T21:45:06.153Z,3.97
2023-04-12T21:47:34.132Z,3.60
2023-04-12T21:50:01.347Z,3.53
2023-04-12T21:52:28.062Z,3.73
2023-04-12T21:54:55.850Z,3.70
2023-04-12T21:57:22.640Z,3.40
2023-04-12T21:59:49.381Z,3.30
2023-04-12T22:02:16.351Z,3.33
2023-04-12T22:04:43.664Z,3.27
2023-04-12T22:07:17.535Z,3.57
2023-04-12T22:09:45.305Z,2.93
2023-04-12T22:12:12.761Z,3.50
2023-04-12T22:14:46.658Z,2.97
2023-04-12T22:17:14.768Z,3.87
2023-04-12T22:19:43.779Z,3.00
2023-04-12T22:22:11.136Z,3.10
2023-04-12T22:24:38.836Z,2.67
2023-04-12T22:27:06.933Z,2.87
2023-04-12T22:29:37.758Z,2.50
2023-04-12T22:32:08.861Z,2.53
2023-04-12T22:34:39.299Z,2.00
2023-04-12T22:37:08.680Z,2.37
2023-04-12T22:39:39.497Z,2.30
2023-04-12T22:42:06.441Z,2.27
2023-04-12T22:44:40.508Z,1.90
2023-04-12T22:47:10.453Z,1.60
2023-04-12T22:49:54.460Z,2.03
2023-04-12T22:52:24.634Z,1.93
2023-04-12T22:54:51.462Z,2.00
2023-04-12T22:57:21.318Z,1.70
2023-04-12T22:59:48.086Z,1.80
2023-04-12T23:02:15.741Z,1.70
2023-04-12T23:04:51.224Z,1.60
2023-04-12T23:07:18.314Z,1.30
2023-04-12T23:09:45.951Z,1.40
2023-04-12T23:12:13.612Z,1.43
2023-04-12T23:14:40.486Z,1.50
2023-04-12T23:17:07.452Z,1.57
2023-04-12T23:19:34.602Z,1.37
2023-04-12T23:22:03.384Z,1.70
2023-04-12T23:24:30.969Z,1.10
2023-04-12T23:27:00.426Z,1.40
2023-04-12T23:29:27.393Z,1.53
2023-04-12T23:31:54.397Z,1.30
2023-04-12T23:34:24.442Z,1.47
2023-04-12T23:36:56.190Z,1.33
2023-04-12T23:39:22.917Z,1.27
2023-04-12T23:41:49.743Z,1.67
2023-04-12T23:44:16.496Z,1.70
2023-04-12T23:46:43.730Z,1.50
2023-04-12T23:49:10.421Z,1.87
2023-04-12T23:51:37.171Z,1.47
2023-04-12T23:54:04.076Z,1.50
2023-04-12T23:56:30.911Z,1.43
2023-04-12T23:58:59.562Z,1.50
